X  Sluiten METAR luchtvaart weer gegevens      EHRD Rotterdam The Hague Airport
Temperatuur
3°C Temperatuur
0°C Dauwpunt
81% Vochtigheid



Wind
8 KM/U
5 MPH
2 M/S
4 KTS



240°
WZW
Huidig weer

Geheel bewolkt Geheel bewolkt
Luchtdruk 1032.92 (hPa) - 30.5 (inHg)
Zicht 3.1 (mijl) - 5 (km)
Vliegveld
Vliegveld code EHRD

Locatie : Rotterdam The Hague Airport
Afstand: 14 (km)

Metar:
EHRD 252225Z AUTO 24004KT 210V270 5000 OVC016 03/00 Q1033 NOSIG

Tijd: 25-01-2022 23:25 CET